Detall de PIREP

Printer-friendly versionPDF version

[2011/04/22 07:14:00]
Flight IATA:CT1004
Pilot Number:011
Company ICAO:CAT
Aircraft Type:F28/A
PAX:85
Departing Airport: LEBL
Destination Airport: EGLC
Alternate Airport:EGKK
Online: VATSIM
Route:OKABI UN861 FISTO UY156 PERIG UT210 DIBAG UN460 FOUCO UT183 TIRAV UN863 DIKRO UZ273 ANGLO UT220 NEVIL M189 WAFFU
Flight Level:F340
No Slew and time accel
No pause
Crash detect
Detect pilot in Cockpit between each 30 and 45 minutes
07:14 Zero fuel Weight: 57657 Lbs, Fuel Weight: 15086 Lbs
07:14 VATSIM:LEBL 220700Z 05019KT 9999 FEW035 16/12 Q1008 NOSIG
07:14 VATSIM:EGLC 220650Z 07004KT 2200 HZ NSC 12/09 Q1009
07:25 Parking Brakes off
07:33 Take-off
07:33 Take off Weight: 72123 Lbs
07:33 Wind: 052º @ 018 Knots Heading: 063º
07:33 POS N41º 17´ 56´´ E002º 05´ 04´´
07:33 Gear Up: 169 Knots
07:33 Flaps:2 at 169 Knots
07:36 Flaps:1 at 229 Knots
07:36 Flaps:0 at 234 Knots
07:48Wind:061º@037 Knots Heading: 352º Ground Speed: 258 Knots Altitude 27316 ft
08:03 Wind:131º@029 Knots Heading: 354º Ground Speed: 402 Knots Altitude 33290 ft
08:03 TOC
08:03 Fuel Weight: 11503 Lb
08:18 Wind:121º@050 Knots Heading: 348º Ground Speed: 484 Knots Altitude 33795 ft
08:33 Wind:125º@024 Knots Heading: 017º Ground Speed: 457 Knots Altitude 33828 ft
08:48 Wind:170º@020 Knots Heading: 019º Ground Speed: 465 Knots Altitude 33877 ft
08:58 TOD
08:58 Fuel Weight: 7857 Lb
09:03 Wind:135º@029 Knots Heading: 321º Ground Speed: 412 Knots Altitude 23362 ft
09:18 Wind:110º@007 Knots Heading: 291º Ground Speed: 239 Knots Altitude 3786 ft
09:22 Flaps:1 at 211 Knots
09:22 Flaps:2 at 204 Knots
09:23 Flaps:3 at 184 Knots
09:23 Flaps:4 at 161 Knots
09:24 Gear Down: 159 Knots
09:24 Flaps:5 at 155 Knots
09:25 TouchDown:Rate -88 ft/min Speed: 114 Knots
09:26 VATSIM:EGLC220820Z 08004KT 3400 HZ NSC 15/10 Q1008
09:26 Land
09:26 Wind:092º@004 Knots
09:26 Heading: 273º
09:26 Flight Duration: 01:53
09:26 Landing Weight: 64500 Lbs
09:26 POS N51º 30´ 19´´ E000º 03´ 05´´
09:27 Parking brakes on
09:27 Block to Block Duration: 02:02
09:27 Final Fuel: 6774 Lbls
09:27 Spent Fuel: 8311 Lbls
09:27 Flight Length: 290 NM
09:27 TOD Land Length: 55 NM

Exportar CSV

Powered by Drupal - Modified by Danger4k